createdAt,value
2019-02-11T00:00:27.388Z,92.56
2019-02-11T00:02:57.907Z,92.59
2019-02-11T00:05:28.786Z,92.50
2019-02-11T00:07:59.207Z,92.26
2019-02-11T00:10:29.681Z,92.45
2019-02-11T00:13:00.112Z,92.29
2019-02-11T00:15:30.546Z,92.09
2019-02-11T00:18:01.338Z,91.97
2019-02-11T00:20:32.094Z,92.10
2019-02-11T00:23:02.572Z,92.00
2019-02-11T00:25:34.883Z,91.94
2019-02-11T00:28:05.315Z,91.93
2019-02-11T00:30:35.782Z,91.89
2019-02-11T00:33:06.297Z,91.66
2019-02-11T00:35:37.752Z,91.58
2019-02-11T00:38:08.479Z,91.11
2019-02-11T00:40:38.912Z,91.32
2019-02-11T00:43:09.378Z,90.54
2019-02-11T00:45:39.812Z,90.56
2019-02-11T00:48:10.299Z,90.40
2019-02-11T00:50:40.736Z,90.03
2019-02-11T00:53:11.536Z,89.91
2019-02-11T00:55:41.998Z,89.37
2019-02-11T00:58:12.434Z,89.47
2019-02-11T01:00:43.270Z,88.74
2019-02-11T01:03:13.703Z,88.68
2019-02-11T01:05:44.137Z,87.98
2019-02-11T01:08:14.945Z,88.18
2019-02-11T01:10:45.360Z,88.19
2019-02-11T01:13:15.864Z,88.38
2019-02-11T01:15:46.295Z,88.50
2019-02-11T01:18:17.092Z,88.65
2019-02-11T01:20:47.523Z,88.70
2019-02-11T01:23:17.992Z,88.48
2019-02-11T01:25:48.758Z,88.77
2019-02-11T01:28:19.353Z,88.09
2019-02-11T01:30:50.436Z,88.12
2019-02-11T01:33:21.180Z,87.83
2019-02-11T01:35:52.037Z,87.97
2019-02-11T01:38:22.466Z,87.87
2019-02-11T01:40:52.897Z,87.35
2019-02-11T01:43:23.361Z,87.80
2019-02-11T01:45:53.794Z,87.42
2019-02-11T01:48:25.068Z,87.29
2019-02-11T01:50:55.504Z,87.47
2019-02-11T01:53:26.555Z,87.22
2019-02-11T01:55:57.662Z,87.26
2019-02-11T01:58:28.087Z,87.01
2019-02-11T02:00:58.920Z,87.05
2019-02-11T02:03:29.708Z,86.27
2019-02-11T02:06:00.168Z,85.91
2019-02-11T02:08:30.630Z,86.08
2019-02-11T02:11:01.131Z,86.70
2019-02-11T02:13:32.114Z,87.07
2019-02-11T02:16:02.544Z,87.63
2019-02-11T02:18:33.441Z,88.50
2019-02-11T02:21:03.905Z,88.79
2019-02-11T02:23:34.334Z,88.80
2019-02-11T02:26:04.807Z,88.60
2019-02-11T02:28:35.247Z,88.09
2019-02-11T02:31:06.669Z,87.94
2019-02-11T02:33:37.589Z,87.59
2019-02-11T02:36:08.020Z,88.11
2019-02-11T02:38:38.501Z,87.52
2019-02-11T02:41:08.929Z,87.24
2019-02-11T02:43:39.360Z,86.98
2019-02-11T02:46:09.823Z,87.71
2019-02-11T02:48:41.035Z,87.44
2019-02-11T02:51:11.507Z,87.64
2019-02-11T02:53:41.932Z,87.46
2019-02-11T02:56:12.533Z,87.69
2019-02-11T02:58:43.312Z,87.00
2019-02-11T03:01:14.312Z,87.16
2019-02-11T03:03:44.829Z,86.81
2019-02-11T03:06:15.703Z,86.52
2019-02-11T03:08:46.134Z,86.56
2019-02-11T03:11:16.963Z,86.80
2019-02-11T03:13:47.398Z,86.83
2019-02-11T03:16:17.873Z,86.63
2019-02-11T03:18:48.299Z,86.59
2019-02-11T03:21:19.002Z,86.32
2019-02-11T03:23:49.458Z,86.16
2019-02-11T03:26:19.932Z,86.53
2019-02-11T03:28:50.408Z,86.44
2019-02-11T03:31:20.842Z,86.38
2019-02-11T03:33:51.627Z,86.03
2019-02-11T03:36:22.104Z,86.15
2019-02-11T03:38:52.536Z,86.10
2019-02-11T03:41:23.037Z,86.16
2019-02-11T03:43:53.476Z,85.38
2019-02-11T03:46:24.607Z,85.37
2019-02-11T03:48:55.434Z,85.43
2019-02-11T03:51:25.868Z,85.65
2019-02-11T03:53:56.345Z,86.01
2019-02-11T03:56:26.877Z,85.96
2019-02-11T03:58:57.309Z,86.28
2019-02-11T04:01:28.160Z,86.54
2019-02-11T04:03:58.595Z,86.38
2019-02-11T04:06:29.128Z,86.62
2019-02-11T04:09:00.303Z,86.16
2019-02-11T04:11:30.735Z,86.34
2019-02-11T04:14:01.192Z,86.33
2019-02-11T04:16:31.629Z,86.00
2019-02-11T04:19:02.467Z,85.92
2019-02-11T04:21:32.900Z,85.89
2019-02-11T04:24:03.329Z,85.61
2019-02-11T04:26:33.870Z,85.72
2019-02-11T04:29:04.294Z,85.60
2019-02-11T04:31:34.722Z,85.83
2019-02-11T04:34:05.524Z,85.98
2019-02-11T04:36:35.951Z,85.64
2019-02-11T04:39:07.313Z,85.38
2019-02-11T04:41:37.767Z,85.50
2019-02-11T04:44:08.886Z,85.69
2019-02-11T04:46:39.367Z,85.71
2019-02-11T04:49:09.797Z,84.84
2019-02-11T04:51:40.231Z,82.88
2019-02-11T04:54:10.702Z,82.82
2019-02-11T04:56:41.135Z,82.17
2019-02-11T04:59:12.049Z,81.65
2019-02-11T05:01:42.547Z,81.00
2019-02-11T05:04:13.353Z,81.12
2019-02-11T05:06:44.121Z,80.92
2019-02-11T05:09:14.542Z,80.17
2019-02-11T05:11:45.020Z,80.45
2019-02-11T05:14:15.718Z,79.57
2019-02-11T05:16:47.110Z,79.49
2019-02-11T05:19:17.567Z,78.92
2019-02-11T05:21:48.398Z,79.28
2019-02-11T05:24:18.881Z,79.69
2019-02-11T05:26:49.812Z,78.26
2019-02-11T05:29:20.246Z,78.09
2019-02-11T05:31:50.698Z,78.09
2019-02-11T05:34:21.464Z,78.92
2019-02-11T05:36:51.959Z,78.49
2019-02-11T05:39:22.458Z,78.96
2019-02-11T05:41:53.270Z,79.97
2019-02-11T05:44:24.075Z,80.10
2019-02-11T05:46:54.506Z,79.25
2019-02-11T05:49:24.980Z,78.94
2019-02-11T05:51:55.409Z,79.47
2019-02-11T05:54:25.889Z,80.09
2019-02-11T05:56:56.391Z,79.92
2019-02-11T05:59:27.486Z,79.48
2019-02-11T06:01:57.907Z,79.24
2019-02-11T06:04:28.396Z,79.53
2019-02-11T06:06:58.867Z,79.62
2019-02-11T06:09:29.571Z,79.30
2019-02-11T06:12:00.317Z,78.28
2019-02-11T06:14:30.749Z,79.39
2019-02-11T06:17:01.176Z,78.98
2019-02-11T06:19:31.656Z,78.60
2019-02-11T06:22:02.082Z,78.73
2019-02-11T06:24:33.742Z,78.41
2019-02-11T06:27:04.219Z,78.74
2019-02-11T06:29:34.675Z,79.60
2019-02-11T06:32:05.109Z,78.95
2019-02-11T06:34:35.596Z,78.61
2019-02-11T06:37:06.024Z,78.14
2019-02-11T06:39:36.934Z,78.82
2019-02-11T06:42:07.878Z,79.17
2019-02-11T06:44:38.720Z,78.86
2019-02-11T06:47:09.150Z,79.46
2019-02-11T06:49:39.997Z,79.72
2019-02-11T06:52:10.892Z,79.64
2019-02-11T06:54:41.329Z,79.80
2019-02-11T06:57:12.750Z,80.22
2019-02-11T06:59:43.179Z,80.31
2019-02-11T07:02:13.960Z,80.66
2019-02-11T07:04:44.716Z,80.03
2019-02-11T07:07:15.167Z,80.40
2019-02-11T07:09:46.292Z,80.04
2019-02-11T07:12:16.830Z,80.13
2019-02-11T07:14:47.256Z,80.00
2019-02-11T07:17:17.683Z,80.38
2019-02-11T07:19:48.155Z,80.20
2019-02-11T07:22:18.583Z,80.23
2019-02-11T07:24:49.005Z,80.61
2019-02-11T07:27:19.808Z,80.19
2019-02-11T07:29:50.237Z,80.35
2019-02-11T07:32:20.831Z,80.08
2019-02-11T07:34:51.299Z,80.38
2019-02-11T07:37:21.723Z,80.70
2019-02-11T07:39:52.149Z,80.54
2019-02-11T07:42:41.751Z,80.66
2019-02-11T07:45:30.021Z,80.63
2019-02-11T07:47:57.512Z,80.71
2019-02-11T07:50:27.945Z,80.80
2019-02-11T07:52:58.364Z,81.50
2019-02-11T07:55:28.833Z,81.85
2019-02-11T07:57:59.263Z,82.31
2019-02-11T08:00:31.650Z,82.19
2019-02-11T08:03:02.111Z,82.67
2019-02-11T08:05:32.548Z,82.82
2019-02-11T08:08:03.003Z,83.52
2019-02-11T08:10:33.856Z,84.24
2019-02-11T08:13:04.279Z,84.62
2019-02-11T08:15:38.617Z,85.04
2019-02-11T08:18:06.896Z,85.33
2019-02-11T08:20:37.325Z,85.75
2019-02-11T08:23:13.231Z,86.45
2019-02-11T08:25:39.920Z,87.07
2019-02-11T08:28:19.404Z,87.57
2019-02-11T08:30:44.685Z,87.81
2019-02-11T08:33:15.160Z,88.17
2019-02-11T08:35:45.595Z,88.48
2019-02-11T08:38:16.042Z,88.80
2019-02-11T08:40:46.508Z,89.27
2019-02-11T08:43:17.358Z,89.55
2019-02-11T08:45:47.811Z,89.04
2019-02-11T08:48:19.714Z,89.19
2019-02-11T08:50:50.452Z,88.83
2019-02-11T08:53:21.309Z,87.80
2019-02-11T08:55:52.204Z,87.99
2019-02-11T08:58:22.635Z,87.78
2019-02-11T09:00:53.435Z,88.27
2019-02-11T09:03:23.920Z,88.70
2019-02-11T09:05:54.664Z,88.31
2019-02-11T09:08:25.125Z,88.47
2019-02-11T09:10:56.024Z,87.76
2019-02-11T09:13:26.463Z,87.20
2019-02-11T09:15:56.917Z,85.49
2019-02-11T09:18:27.403Z,86.17
2019-02-11T09:20:57.836Z,87.61
2019-02-11T09:23:28.688Z,88.32
2019-02-11T09:25:59.161Z,88.43
2019-02-11T09:28:29.615Z,88.63
2019-02-11T09:31:00.041Z,88.61
2019-02-11T09:33:30.524Z,89.03
2019-02-11T09:36:03.261Z,89.24
2019-02-11T09:38:33.513Z,88.60
2019-02-11T09:41:03.996Z,87.26
2019-02-11T09:43:34.430Z,87.20
2019-02-11T09:46:04.862Z,86.72
2019-02-11T09:48:35.456Z,86.50
2019-02-11T09:51:06.808Z,84.99
2019-02-11T09:53:37.237Z,83.84
2019-02-11T09:56:07.982Z,83.89
2019-02-11T09:58:38.711Z,84.10
2019-02-11T10:01:09.136Z,84.84
2019-02-11T10:03:39.628Z,83.18
2019-02-11T10:06:10.084Z,82.99
2019-02-11T10:08:40.932Z,83.38
2019-02-11T10:11:11.777Z,83.79
2019-02-11T10:13:42.209Z,85.59
2019-02-11T10:16:12.870Z,86.31
2019-02-11T10:18:43.503Z,86.44
2019-02-11T10:21:13.928Z,86.08
2019-02-11T10:23:44.659Z,86.82
2019-02-11T10:26:15.132Z,87.09
2019-02-11T10:28:45.559Z,87.11
2019-02-11T10:31:16.080Z,86.96
2019-02-11T10:33:46.564Z,86.81
2019-02-11T10:36:18.401Z,87.49
2019-02-11T10:38:48.834Z,87.53
2019-02-11T10:41:19.800Z,87.39
2019-02-11T10:43:50.232Z,88.06
2019-02-11T10:46:21.304Z,88.16
2019-02-11T10:48:51.833Z,87.59
2019-02-11T10:51:22.264Z,86.79
2019-02-11T10:53:52.785Z,86.18
2019-02-11T10:56:23.360Z,85.39
2019-02-11T10:58:54.141Z,83.81
2019-02-11T11:01:24.590Z,82.60
2019-02-11T11:03:55.290Z,83.26
2019-02-11T11:06:26.082Z,81.83
2019-02-11T11:08:56.880Z,82.00
2019-02-11T11:11:27.453Z,81.33
2019-02-11T11:13:57.892Z,80.81
2019-02-11T11:16:29.990Z,80.04
2019-02-11T11:19:00.817Z,78.81
2019-02-11T11:21:31.599Z,78.86
2019-02-11T11:24:02.374Z,79.39
2019-02-11T11:26:33.260Z,79.09
2019-02-11T11:29:03.877Z,79.14
2019-02-11T11:31:34.373Z,77.37
2019-02-11T11:34:04.852Z,75.45
2019-02-11T11:36:35.337Z,75.47
2019-02-11T11:39:08.118Z,75.94
2019-02-11T11:41:38.616Z,76.78
2019-02-11T11:44:09.052Z,76.80
2019-02-11T11:46:46.896Z,75.34
2019-02-11T11:49:11.946Z,76.41
2019-02-11T11:51:42.376Z,74.67
2019-02-11T11:54:12.908Z,74.55
2019-02-11T11:56:43.723Z,75.01
2019-02-11T11:59:14.160Z,73.78
2019-02-11T12:01:44.585Z,74.66
2019-02-11T12:04:15.496Z,75.25
2019-02-11T12:06:45.946Z,75.60
2019-02-11T12:09:16.363Z,76.46
2019-02-11T12:11:46.833Z,77.87
2019-02-11T12:14:17.272Z,77.68
2019-02-11T12:16:56.988Z,77.50
2019-02-11T12:19:19.928Z,78.19
2019-02-11T12:21:50.366Z,78.28
2019-02-11T12:24:21.241Z,78.78
2019-02-11T12:26:51.717Z,77.25
2019-02-11T12:29:22.522Z,76.10
2019-02-11T12:31:53.324Z,74.14
2019-02-11T12:34:23.916Z,72.77
2019-02-11T12:36:55.187Z,73.70
2019-02-11T12:39:25.745Z,74.19
2019-02-11T12:41:56.276Z,72.44
2019-02-11T12:44:27.118Z,72.57
2019-02-11T12:47:13.312Z,68.71
2019-02-11T12:49:30.235Z,69.22
2019-02-11T12:52:00.705Z,70.28
2019-02-11T12:54:31.143Z,69.48
2019-02-11T12:57:01.600Z,68.10
2019-02-11T12:59:32.047Z,67.58
2019-02-11T13:02:02.482Z,68.62
2019-02-11T13:04:33.632Z,67.28
2019-02-11T13:07:04.185Z,67.56
2019-02-11T13:09:34.671Z,67.25
2019-02-11T13:12:05.152Z,68.06
2019-02-11T13:14:35.618Z,68.75
2019-02-11T13:17:15.601Z,71.60
2019-02-11T13:19:38.609Z,71.88
2019-02-11T13:22:09.154Z,73.20
2019-02-11T13:24:39.990Z,72.90
2019-02-11T13:27:10.887Z,72.72
2019-02-11T13:29:41.504Z,72.56
2019-02-11T13:32:11.958Z,72.14
2019-02-11T13:34:42.502Z,70.12
2019-02-11T13:37:13.242Z,68.80
2019-02-11T13:39:43.671Z,70.25
2019-02-11T13:42:14.565Z,67.92
2019-02-11T13:44:45.038Z,69.41
2019-02-11T13:47:16.269Z,68.13
2019-02-11T13:49:47.113Z,67.78
2019-02-11T13:52:17.699Z,68.08
2019-02-11T13:54:48.488Z,71.64
2019-02-11T13:57:18.996Z,73.33
2019-02-11T13:59:49.441Z,73.37
2019-02-11T14:02:19.874Z,72.73
2019-02-11T14:04:50.738Z,73.80
2019-02-11T14:07:21.969Z,72.26
2019-02-11T14:09:52.407Z,72.19
2019-02-11T14:12:23.889Z,71.91
2019-02-11T14:14:54.400Z,70.63
2019-02-11T14:17:24.845Z,69.24
2019-02-11T14:19:55.310Z,68.39
2019-02-11T14:22:25.744Z,67.81
2019-02-11T14:24:56.211Z,68.44
2019-02-11T14:27:26.712Z,69.03
2019-02-11T14:29:57.479Z,68.06
2019-02-11T14:32:31.338Z,68.05
2019-02-11T14:35:00.455Z,68.37
2019-02-11T14:37:31.631Z,68.52
2019-02-11T14:40:02.196Z,68.34
2019-02-11T14:42:33.860Z,68.56
2019-02-11T14:45:04.901Z,67.45
2019-02-11T14:47:35.592Z,66.17
2019-02-11T14:50:06.680Z,65.03
2019-02-11T14:52:37.134Z,64.82
2019-02-11T14:55:07.788Z,63.97
2019-02-11T14:57:38.378Z,63.30
2019-02-11T15:00:14.040Z,64.95
2019-02-11T15:02:44.517Z,67.13
2019-02-11T15:05:15.155Z,68.53
2019-02-11T15:07:46.249Z,69.75
2019-02-11T15:10:16.915Z,69.47
2019-02-11T15:12:48.075Z,69.63
2019-02-11T15:15:18.553Z,68.78
2019-02-11T15:17:49.084Z,69.06
2019-02-11T15:20:19.513Z,68.97
2019-02-11T15:22:50.710Z,67.32
2019-02-11T15:25:21.232Z,66.75
2019-02-11T15:27:51.675Z,66.78
2019-02-11T15:30:22.717Z,66.08
2019-02-11T15:32:53.297Z,66.39
2019-02-11T15:35:23.742Z,66.13
2019-02-11T15:37:54.200Z,65.79
2019-02-11T15:40:24.713Z,65.32
2019-02-11T15:42:55.163Z,64.65
2019-02-11T15:45:25.947Z,63.95
2019-02-11T15:47:56.435Z,64.21
2019-02-11T15:50:26.870Z,63.48
2019-02-11T15:52:59.008Z,64.22
2019-02-11T15:55:29.692Z,63.97
2019-02-11T15:58:00.520Z,64.78
2019-02-11T16:00:31.770Z,66.08
2019-02-11T16:03:02.308Z,66.36
2019-02-11T16:05:32.738Z,66.55
2019-02-11T16:08:03.200Z,66.56
2019-02-11T16:10:34.090Z,66.97
2019-02-11T16:13:04.542Z,67.69
2019-02-11T16:15:34.996Z,67.99
2019-02-11T16:23:31.797Z,68.65
2019-02-11T16:26:02.233Z,69.63
2019-02-11T16:28:32.995Z,69.22
2019-02-11T16:31:03.846Z,69.71
2019-02-11T16:33:34.277Z,69.47
2019-02-11T16:36:04.729Z,69.43
2019-02-11T16:38:35.214Z,69.59
2019-02-11T16:41:05.696Z,68.59
2019-02-11T16:43:36.504Z,69.27
2019-02-11T16:46:07.758Z,68.92
2019-02-11T16:48:38.191Z,68.56
2019-02-11T16:51:09.025Z,68.21
2019-02-11T16:53:39.512Z,69.83
2019-02-11T16:56:10.293Z,68.33
2019-02-11T16:58:41.145Z,68.30
2019-02-11T17:01:12.029Z,69.32
2019-02-11T17:03:42.652Z,68.59
2019-02-11T17:06:13.120Z,68.26
2019-02-11T17:08:43.617Z,68.53
2019-02-11T17:11:14.086Z,69.05
2019-02-11T17:13:44.532Z,69.23
2019-02-11T17:16:15.153Z,70.18
2019-02-11T17:18:45.585Z,70.84
2019-02-11T17:21:16.024Z,71.04
2019-02-11T17:23:46.907Z,71.76
2019-02-11T17:26:17.328Z,72.31
2019-02-11T17:28:48.437Z,72.08
2019-02-11T17:31:19.303Z,72.48
2019-02-11T17:33:49.747Z,73.07
2019-02-11T17:36:20.203Z,73.13
2019-02-11T17:38:50.687Z,73.33
2019-02-11T17:41:21.131Z,73.71
2019-02-11T17:43:51.565Z,72.87
2019-02-11T17:46:22.052Z,72.98
2019-02-11T17:48:52.570Z,73.53
2019-02-11T17:51:26.846Z,72.75
2019-02-11T17:53:57.522Z,73.08
2019-02-11T17:56:28.015Z,74.02
2019-02-11T17:58:59.121Z,74.04
2019-02-11T18:01:30.369Z,73.06
2019-02-11T18:04:01.139Z,73.37
2019-02-11T18:06:32.765Z,72.81
2019-02-11T18:09:04.101Z,73.74
2019-02-11T18:11:35.275Z,73.35
2019-02-11T18:14:05.721Z,73.67
2019-02-11T18:16:39.701Z,73.11
2019-02-11T18:19:10.475Z,73.58
2019-02-11T18:21:43.982Z,73.72
2019-02-11T18:24:16.549Z,73.24
2019-02-11T18:26:47.001Z,73.21
2019-02-11T18:29:17.499Z,73.37
2019-02-11T18:31:49.649Z,73.42
2019-02-11T18:34:21.903Z,72.77
2019-02-11T18:36:52.386Z,72.85
2019-02-11T18:39:23.713Z,73.69
2019-02-11T18:41:54.158Z,74.48
2019-02-11T18:44:24.641Z,74.93
2019-02-11T18:46:55.101Z,75.04
2019-02-11T18:49:34.188Z,75.47
2019-02-11T18:51:59.415Z,75.62
2019-02-11T18:54:30.169Z,75.12
2019-02-11T18:57:00.602Z,75.05
2019-02-11T18:59:31.443Z,75.38
2019-02-11T19:02:02.209Z,76.26
2019-02-11T19:04:34.030Z,76.59
2019-02-11T19:07:04.951Z,76.71
2019-02-11T19:09:41.883Z,76.73
2019-02-11T19:12:17.326Z,76.44
2019-02-11T19:14:47.805Z,76.23
2019-02-11T19:17:19.181Z,76.46
2019-02-11T19:19:50.725Z,76.64
2019-02-11T19:22:22.329Z,76.57
2019-02-11T19:24:52.889Z,75.23
2019-02-11T19:27:23.711Z,74.83
2019-02-11T19:29:54.913Z,73.54
2019-02-11T19:32:25.410Z,74.05
2019-02-11T19:34:56.632Z,73.31
2019-02-11T19:37:27.113Z,73.82
2019-02-11T19:39:59.896Z,73.69
2019-02-11T19:42:30.678Z,73.83
2019-02-11T19:45:04.042Z,73.11
2019-02-11T19:47:35.253Z,73.36
2019-02-11T19:50:06.574Z,73.74
2019-02-11T19:52:37.032Z,74.58
2019-02-11T19:55:10.665Z,74.66
2019-02-11T19:57:43.332Z,74.93
2019-02-11T20:00:17.774Z,75.33
2019-02-11T20:02:48.843Z,75.86
2019-02-11T20:05:20.208Z,75.95
2019-02-11T20:07:52.167Z,75.60
2019-02-11T20:10:22.852Z,76.01
2019-02-11T20:12:53.287Z,76.49
2019-02-11T20:15:24.384Z,76.54
2019-02-11T20:17:54.817Z,77.20
2019-02-11T20:20:26.396Z,76.81
2019-02-11T20:23:00.293Z,76.71
2019-02-11T20:25:33.608Z,77.18
2019-02-11T20:28:15.528Z,77.00
2019-02-11T20:30:46.553Z,77.83
2019-02-11T20:33:20.772Z,77.76
2019-02-11T20:35:51.872Z,77.83
2019-02-11T20:38:25.920Z,77.58
2019-02-11T20:40:56.356Z,77.66
2019-02-11T20:43:28.415Z,77.74
2019-02-11T20:45:58.848Z,78.08
2019-02-11T20:48:29.912Z,78.33
2019-02-11T20:51:00.694Z,78.29
2019-02-11T20:53:31.902Z,78.34
2019-02-11T20:56:02.393Z,78.31
2019-02-11T20:58:33.365Z,78.37
2019-02-11T21:01:03.813Z,78.50
2019-02-11T21:03:34.848Z,78.45
2019-02-11T21:06:05.422Z,78.98
2019-02-11T21:08:36.309Z,78.73
2019-02-11T21:11:06.752Z,78.91
2019-02-11T21:13:37.528Z,79.12
2019-02-11T21:16:08.361Z,79.02
2019-02-11T21:18:39.165Z,79.57
2019-02-11T21:21:10.418Z,79.24
2019-02-11T21:23:40.897Z,79.06
2019-02-11T21:26:11.342Z,79.20
2019-02-11T21:28:43.658Z,79.71
2019-02-11T21:31:14.318Z,80.03
2019-02-11T21:33:44.775Z,79.56
2019-02-11T21:36:15.629Z,79.28
2019-02-11T21:38:46.066Z,79.01
2019-02-11T21:41:16.527Z,78.75
2019-02-11T21:43:47.019Z,78.62
2019-02-11T21:46:17.481Z,78.26
2019-02-11T21:48:49.788Z,77.91
2019-02-11T21:51:20.722Z,77.55
2019-02-11T21:53:51.152Z,78.00
2019-02-11T21:56:21.596Z,77.23
2019-02-11T21:58:52.091Z,77.76
2019-02-11T22:01:22.606Z,78.16
2019-02-11T22:03:53.069Z,78.30
2019-02-11T22:06:23.597Z,77.02
2019-02-11T22:08:54.075Z,76.40
2019-02-11T22:11:24.519Z,76.66
2019-02-11T22:13:55.010Z,75.96
2019-02-11T22:16:25.453Z,75.49
2019-02-11T22:18:55.890Z,74.55
2019-02-11T22:21:26.369Z,73.25
2019-02-11T22:23:56.802Z,73.55
2019-02-11T22:26:27.234Z,73.89
2019-02-11T22:28:58.030Z,73.71
2019-02-11T22:31:28.794Z,73.12
2019-02-11T22:33:59.520Z,72.07
2019-02-11T22:36:30.372Z,73.28
2019-02-11T22:39:00.842Z,72.91
2019-02-11T22:41:31.288Z,73.01
2019-02-11T22:44:02.066Z,72.58
2019-02-11T22:46:32.517Z,72.61
2019-02-11T22:49:03.416Z,72.79
2019-02-11T22:51:35.553Z,73.38
2019-02-11T22:54:06.103Z,73.62
2019-02-11T22:56:36.737Z,73.32
2019-02-11T22:59:07.161Z,73.69
2019-02-11T23:01:37.690Z,73.57
2019-02-11T23:04:08.473Z,73.66
2019-02-11T23:06:38.905Z,74.04
2019-02-11T23:09:12.743Z,74.14
2019-02-11T23:11:43.175Z,73.69
2019-02-11T23:14:13.906Z,73.90
2019-02-11T23:16:44.369Z,73.30
2019-02-11T23:19:15.744Z,73.22
2019-02-11T23:21:46.276Z,73.01
2019-02-11T23:24:16.717Z,72.31
2019-02-11T23:26:47.141Z,72.85
2019-02-11T23:29:17.604Z,73.39
2019-02-11T23:31:48.043Z,72.79
2019-02-11T23:34:18.964Z,72.88
2019-02-11T23:36:49.394Z,72.38
2019-02-11T23:39:19.888Z,72.04
2019-02-11T23:41:50.316Z,70.41
2019-02-11T23:44:20.758Z,70.80
2019-02-11T23:46:51.219Z,70.31
2019-02-11T23:49:21.650Z,70.85
2019-02-11T23:51:52.394Z,70.26
2019-02-11T23:54:23.802Z,70.36
2019-02-11T23:56:54.234Z,70.99
2019-02-11T23:59:24.695Z,70.39
